createdAt,value
2022-12-17T00:03:52.369Z,9.70
2022-12-17T00:06:39.234Z,10.20
2022-12-17T00:09:25.580Z,9.45
2022-12-17T00:12:11.622Z,11.07
2022-12-17T00:14:57.721Z,11.07
2022-12-17T00:17:43.548Z,11.32
2022-12-17T00:20:29.755Z,9.68
2022-12-17T00:23:23.939Z,10.88
2022-12-17T00:26:11.852Z,10.65
2022-12-17T00:28:58.791Z,8.93
2022-12-17T00:31:46.327Z,9.20
2022-12-17T00:34:33.241Z,8.95
2022-12-17T00:37:19.329Z,10.05
2022-12-17T00:40:05.347Z,9.63
2022-12-17T00:42:51.775Z,9.35
2022-12-17T00:45:37.837Z,7.68
2022-12-17T00:48:24.086Z,8.93
2022-12-17T00:51:10.016Z,9.90
2022-12-17T00:53:55.883Z,5.40
2022-12-17T00:56:41.949Z,10.02
2022-12-17T00:59:28.545Z,9.00
2022-12-17T01:02:15.175Z,7.60
2022-12-17T01:05:01.368Z,7.90
2022-12-17T01:07:47.363Z,7.57
2022-12-17T01:10:33.343Z,9.38
2022-12-17T01:13:19.220Z,9.32
2022-12-17T01:16:09.177Z,8.95
2022-12-17T01:18:55.317Z,8.45
2022-12-17T01:21:42.808Z,9.27
2022-12-17T01:24:28.812Z,9.07
2022-12-17T01:27:14.616Z,10.18
2022-12-17T01:30:00.710Z,8.68
2022-12-17T01:32:48.424Z,9.13
2022-12-17T01:35:34.337Z,7.97
2022-12-17T01:38:20.414Z,8.43
2022-12-17T01:41:12.719Z,8.48
2022-12-17T01:43:58.905Z,9.20
2022-12-17T01:46:51.592Z,8.70
2022-12-17T01:49:40.809Z,8.00
2022-12-17T01:52:29.716Z,9.10
2022-12-17T01:55:16.317Z,8.73
2022-12-17T01:58:03.781Z,8.43
2022-12-17T02:00:50.384Z,8.98
2022-12-17T02:03:37.769Z,9.55
2022-12-17T02:06:46.195Z,9.00
2022-12-17T02:09:52.870Z,9.45
2022-12-17T02:12:46.301Z,8.68
2022-12-17T02:15:45.920Z,8.52
2022-12-17T02:18:40.046Z,8.95
2022-12-17T02:21:28.862Z,8.18
2022-12-17T02:24:27.448Z,8.45
2022-12-17T02:27:18.316Z,8.43
2022-12-17T02:30:14.615Z,7.82
2022-12-17T02:33:04.715Z,7.60
2022-12-17T02:36:04.686Z,7.68
2022-12-17T02:38:52.580Z,9.55
2022-12-17T02:41:54.994Z,8.27
2022-12-17T02:44:42.817Z,7.10
2022-12-17T02:47:31.220Z,7.13
2022-12-17T02:50:17.203Z,7.82
2022-12-17T02:53:08.006Z,7.28
2022-12-17T02:55:54.662Z,5.07
2022-12-17T02:58:40.839Z,7.10
2022-12-17T03:01:27.023Z,7.50
2022-12-17T03:04:13.957Z,7.38
2022-12-17T03:06:59.987Z,7.55
2022-12-17T03:09:45.964Z,7.82
2022-12-17T03:12:32.654Z,8.30
2022-12-17T03:15:19.006Z,8.55
2022-12-17T03:18:05.091Z,9.10
2022-12-17T03:20:51.136Z,8.95
2022-12-17T03:23:37.189Z,8.48
2022-12-17T03:26:23.589Z,7.05
2022-12-17T03:29:10.157Z,10.68
2022-12-17T03:31:56.385Z,10.30
2022-12-17T03:34:59.232Z,8.48
2022-12-17T03:37:45.504Z,9.50
2022-12-17T03:40:31.830Z,9.63
2022-12-17T03:43:24.742Z,8.95
2022-12-17T03:46:12.305Z,8.95
2022-12-17T03:48:58.617Z,9.27
2022-12-17T03:51:44.600Z,9.32
2022-12-17T03:54:30.552Z,10.60
2022-12-17T03:57:18.366Z,9.05
2022-12-17T04:00:04.758Z,9.73
2022-12-17T04:02:58.485Z,10.43
2022-12-17T04:05:44.966Z,9.93
2022-12-17T04:08:31.429Z,11.10
2022-12-17T04:11:17.167Z,12.18
2022-12-17T04:14:03.617Z,10.23
2022-12-17T04:16:50.325Z,12.60
2022-12-17T04:19:36.217Z,12.88
2022-12-17T04:22:22.149Z,11.13
2022-12-17T04:25:08.833Z,11.02
2022-12-17T04:27:54.893Z,10.73
2022-12-17T04:30:41.049Z,11.32
2022-12-17T04:33:27.202Z,10.32
2022-12-17T04:36:13.189Z,11.10
2022-12-17T04:38:59.247Z,9.93
2022-12-17T04:41:45.313Z,9.30
2022-12-17T04:44:32.102Z,9.10
2022-12-17T04:47:18.026Z,9.43
2022-12-17T04:50:03.996Z,9.07
2022-12-17T04:52:50.110Z,8.30
2022-12-17T04:55:36.117Z,8.65
2022-12-17T04:58:24.602Z,8.48
2022-12-17T05:01:11.595Z,7.57
2022-12-17T05:03:58.262Z,9.15
2022-12-17T05:06:44.717Z,8.60
2022-12-17T05:09:30.731Z,9.15
2022-12-17T05:12:16.722Z,8.07
2022-12-17T05:15:02.711Z,6.95
2022-12-17T05:17:49.207Z,9.02
2022-12-17T05:20:38.449Z,8.10
2022-12-17T05:23:25.589Z,5.00
2022-12-17T05:26:39.243Z,7.78
2022-12-17T05:29:25.748Z,8.05
2022-12-17T05:32:12.354Z,6.63
2022-12-17T05:34:58.302Z,6.97
2022-12-17T05:37:44.305Z,7.38
2022-12-17T05:40:31.000Z,5.63
2022-12-17T05:43:23.663Z,7.68
2022-12-17T05:46:10.263Z,7.53
2022-12-17T05:48:56.539Z,8.13
2022-12-17T05:51:42.673Z,7.65
2022-12-17T05:54:28.763Z,7.60
2022-12-17T05:57:14.806Z,8.45
2022-12-17T06:00:00.825Z,8.00
2022-12-17T06:02:47.378Z,8.57
2022-12-17T06:05:33.651Z,7.25
2022-12-17T06:08:25.288Z,7.93
2022-12-17T06:11:12.151Z,8.63
2022-12-17T06:13:58.210Z,8.18
2022-12-17T06:16:44.308Z,8.45
2022-12-17T06:19:30.387Z,8.23
2022-12-17T06:22:16.368Z,9.35
2022-12-17T06:25:02.426Z,9.10
2022-12-17T06:27:48.420Z,8.52
2022-12-17T06:30:34.345Z,8.10
2022-12-17T06:33:30.817Z,10.20
2022-12-17T06:36:22.441Z,9.27
2022-12-17T06:39:09.375Z,10.32
2022-12-17T06:42:00.341Z,10.18
2022-12-17T06:44:50.560Z,10.63
2022-12-17T06:47:37.574Z,10.45
2022-12-17T06:50:24.609Z,10.35
2022-12-17T06:53:22.438Z,9.05
2022-12-17T06:56:08.902Z,8.77
2022-12-17T06:58:55.312Z,8.63
2022-12-17T07:01:41.617Z,7.90
2022-12-17T07:04:27.915Z,8.80
2022-12-17T07:07:14.030Z,9.25
2022-12-17T07:10:00.719Z,8.80
2022-12-17T07:12:47.196Z,9.93
2022-12-17T07:15:33.138Z,6.65
2022-12-17T07:18:21.749Z,8.95
2022-12-17T07:21:11.789Z,8.30
2022-12-17T07:23:58.903Z,10.40
2022-12-17T07:26:44.886Z,19.40
2022-12-17T07:29:31.535Z,12.88
2022-12-17T07:32:17.645Z,9.45
2022-12-17T07:35:03.811Z,8.93
2022-12-17T07:37:51.613Z,10.02
2022-12-17T07:40:37.720Z,10.57
2022-12-17T07:43:31.352Z,9.43
2022-12-17T07:46:18.053Z,8.85
2022-12-17T07:49:04.379Z,8.50
2022-12-17T07:51:50.375Z,9.40
2022-12-17T07:54:36.295Z,9.48
2022-12-17T07:57:22.422Z,9.25
2022-12-17T08:00:08.810Z,8.07
2022-12-17T08:02:55.303Z,8.82
2022-12-17T08:05:41.253Z,8.30
2022-12-17T08:08:29.267Z,9.70
2022-12-17T08:11:15.209Z,9.18
2022-12-17T08:14:01.729Z,9.38
2022-12-17T08:16:47.926Z,9.70
2022-12-17T08:19:34.172Z,9.38
2022-12-17T08:22:20.022Z,8.90
2022-12-17T08:25:05.963Z,8.05
2022-12-17T08:27:52.540Z,8.45
2022-12-17T08:30:38.524Z,9.82
2022-12-17T08:33:25.920Z,9.13
2022-12-17T08:36:13.838Z,9.07
2022-12-17T08:39:00.401Z,9.30
2022-12-17T08:41:52.699Z,9.25
2022-12-17T08:44:40.618Z,10.50
2022-12-17T08:47:26.801Z,9.50
2022-12-17T08:50:12.818Z,8.65
2022-12-17T08:52:58.805Z,9.60
2022-12-17T08:55:45.360Z,10.43
2022-12-17T08:58:31.305Z,9.27
2022-12-17T09:01:18.715Z,9.13
2022-12-17T09:04:05.830Z,10.38
2022-12-17T09:06:51.824Z,8.90
2022-12-17T09:09:37.912Z,9.60
2022-12-17T09:12:23.978Z,9.35
2022-12-17T09:15:09.923Z,9.18
2022-12-17T09:17:56.065Z,9.38
2022-12-17T09:20:42.472Z,8.52
2022-12-17T09:23:28.945Z,9.57
2022-12-17T09:26:16.055Z,9.35
2022-12-17T09:29:02.649Z,9.13
2022-12-17T09:31:50.133Z,10.18
2022-12-17T09:34:37.171Z,9.43
2022-12-17T09:37:24.214Z,8.63
2022-12-17T09:40:10.546Z,9.20
2022-12-17T09:43:14.066Z,8.90
2022-12-17T09:46:39.402Z,9.93
2022-12-17T09:49:47.257Z,8.77
2022-12-17T09:52:33.877Z,7.75
2022-12-17T09:55:34.593Z,8.43
2022-12-17T09:58:22.285Z,7.88
2022-12-17T10:01:09.838Z,8.90
2022-12-17T10:04:04.526Z,8.50
2022-12-17T10:06:51.907Z,8.80
2022-12-17T10:09:38.263Z,8.25
2022-12-17T10:12:33.361Z,9.15
2022-12-17T10:15:19.943Z,9.15
2022-12-17T10:18:05.951Z,8.68
2022-12-17T10:21:00.709Z,8.68
2022-12-17T10:23:49.629Z,7.45
2022-12-17T10:26:49.919Z,8.88
2022-12-17T10:29:44.003Z,7.90
2022-12-17T10:32:33.768Z,8.40
2022-12-17T10:35:39.742Z,7.82
2022-12-17T10:38:47.746Z,7.65
2022-12-17T10:41:42.936Z,7.55
2022-12-17T10:44:50.401Z,7.70
2022-12-17T10:47:39.494Z,7.63
2022-12-17T10:50:33.903Z,7.85
2022-12-17T10:53:21.095Z,7.35
2022-12-17T10:56:16.194Z,8.10
2022-12-17T10:59:06.110Z,7.35
2022-12-17T11:01:53.466Z,7.22
2022-12-17T11:04:54.906Z,7.75
2022-12-17T11:07:50.007Z,8.32
2022-12-17T11:10:40.422Z,7.43
2022-12-17T11:14:00.254Z,8.68
2022-12-17T11:16:53.522Z,8.15
2022-12-17T11:19:39.913Z,8.90
2022-12-17T11:22:42.470Z,8.18
2022-12-17T11:25:56.651Z,7.70
2022-12-17T11:28:48.326Z,8.68
2022-12-17T11:31:44.028Z,9.43
2022-12-17T11:34:31.015Z,8.40
2022-12-17T11:37:31.907Z,8.63
2022-12-17T11:40:52.637Z,9.30
2022-12-17T11:43:45.241Z,11.82
2022-12-17T11:46:57.377Z,8.30
2022-12-17T11:50:23.440Z,12.43
2022-12-17T11:53:09.430Z,7.90
2022-12-17T11:56:19.073Z,13.40
2022-12-17T11:59:20.456Z,9.02
2022-12-17T12:02:20.113Z,8.48
2022-12-17T12:05:23.534Z,7.97
2022-12-17T12:08:19.608Z,8.25
2022-12-17T12:11:22.919Z,12.10
2022-12-17T12:14:11.302Z,11.90
2022-12-17T12:17:15.748Z,9.30
2022-12-17T12:20:17.837Z,7.03
2022-12-17T12:23:24.869Z,12.20
2022-12-17T12:26:20.382Z,8.90
2022-12-17T12:29:35.514Z,6.50
2022-12-17T12:32:44.766Z,7.15
2022-12-17T12:35:36.994Z,7.18
2022-12-17T12:38:24.578Z,7.20
2022-12-17T12:41:21.369Z,6.60
2022-12-17T12:44:18.785Z,7.68
2022-12-17T12:47:27.822Z,6.72
2022-12-17T12:50:41.580Z,6.10
2022-12-17T12:53:31.215Z,5.80
2022-12-17T12:56:17.487Z,5.72
2022-12-17T12:59:03.467Z,6.22
2022-12-17T13:01:57.042Z,6.30
2022-12-17T13:04:48.313Z,6.05
2022-12-17T13:07:28.290Z,6.20
2022-12-17T13:09:58.479Z,5.40
2022-12-17T13:12:45.331Z,5.60
2022-12-17T13:15:33.411Z,6.97
2022-12-17T13:18:16.232Z,6.32
2022-12-17T13:20:43.818Z,6.95
2022-12-17T13:23:25.131Z,5.85
2022-12-17T13:26:17.741Z,6.00
2022-12-17T13:28:58.070Z,6.38
2022-12-17T13:31:28.787Z,6.22
2022-12-17T13:34:26.047Z,6.65
2022-12-17T13:39:36.895Z,7.00
2022-12-17T13:42:05.093Z,6.07
2022-12-17T13:44:40.344Z,5.65
2022-12-17T13:47:23.572Z,6.30
2022-12-17T13:50:24.574Z,5.63
2022-12-17T13:52:41.343Z,5.88
2022-12-17T13:55:19.549Z,6.50
2022-12-17T13:57:48.954Z,5.93
2022-12-17T14:00:34.362Z,5.93
2022-12-17T14:03:12.223Z,5.95
2022-12-17T14:05:44.212Z,5.80
2022-12-17T14:08:20.807Z,5.60
2022-12-17T14:10:53.550Z,5.53
2022-12-17T14:13:21.477Z,5.82
2022-12-17T14:15:52.839Z,6.25
2022-12-17T14:18:21.738Z,5.85
2022-12-17T14:20:52.136Z,6.40
2022-12-17T14:23:28.830Z,6.25
2022-12-17T14:25:57.289Z,6.32
2022-12-17T14:28:31.531Z,6.47
2022-12-17T14:31:26.757Z,7.38
2022-12-17T14:34:11.479Z,6.35
2022-12-17T14:36:42.357Z,7.10
2022-12-17T14:39:31.286Z,6.90
2022-12-17T14:42:26.533Z,6.38
2022-12-17T14:44:59.159Z,5.82
2022-12-17T14:47:35.703Z,6.20
2022-12-17T14:50:12.464Z,6.70
2022-12-17T14:52:46.751Z,5.88
2022-12-17T14:55:29.965Z,5.90
2022-12-17T14:58:12.632Z,5.95
2022-12-17T15:01:05.231Z,6.22
2022-12-17T15:03:37.757Z,5.35
2022-12-17T15:06:08.178Z,6.20
2022-12-17T15:08:49.613Z,5.68
2022-12-17T15:11:20.298Z,6.38
2022-12-17T15:13:54.437Z,6.25
2022-12-17T15:16:24.335Z,5.95
2022-12-17T15:18:52.133Z,5.80
2022-12-17T15:21:20.240Z,6.40
2022-12-17T15:23:48.635Z,7.85
2022-12-17T15:26:17.433Z,6.40
2022-12-17T15:28:44.966Z,6.40
2022-12-17T15:31:14.691Z,6.07
2022-12-17T15:33:42.906Z,6.65
2022-12-17T15:36:11.871Z,6.28
2022-12-17T15:38:39.758Z,6.30
2022-12-17T15:41:26.883Z,6.28
2022-12-17T15:43:54.416Z,5.88
2022-12-17T15:46:22.020Z,6.38
2022-12-17T15:48:50.618Z,6.03
2022-12-17T15:51:21.099Z,6.03
2022-12-17T15:53:48.851Z,5.70
2022-12-17T15:56:25.447Z,6.03
2022-12-17T15:58:53.205Z,6.40
2022-12-17T16:01:20.869Z,5.93
2022-12-17T16:03:48.974Z,6.55
2022-12-17T16:06:19.513Z,6.65
2022-12-17T16:08:47.088Z,6.38
2022-12-17T16:11:16.206Z,6.20
2022-12-17T16:13:43.899Z,6.60
2022-12-17T16:16:11.428Z,6.55
2022-12-17T16:18:39.941Z,6.35
2022-12-17T16:21:08.941Z,6.05
2022-12-17T16:23:36.778Z,5.88
2022-12-17T16:26:07.683Z,5.90
2022-12-17T16:28:36.694Z,5.90
2022-12-17T16:31:13.419Z,6.15
2022-12-17T16:33:42.632Z,5.90
2022-12-17T16:36:13.767Z,6.00
2022-12-17T16:38:46.378Z,5.95
2022-12-17T16:41:14.881Z,5.95
2022-12-17T16:43:43.113Z,6.45
2022-12-17T16:46:28.774Z,5.82
2022-12-17T16:48:58.398Z,5.88
2022-12-17T16:51:29.460Z,5.57
2022-12-17T16:53:58.579Z,5.35
2022-12-17T16:56:28.187Z,5.57
2022-12-17T16:58:56.731Z,5.88
2022-12-17T17:01:28.018Z,7.03
2022-12-17T17:03:56.215Z,5.65
2022-12-17T17:06:27.720Z,6.95
2022-12-17T17:08:57.975Z,5.93
2022-12-17T17:11:26.147Z,7.78
2022-12-17T17:13:54.812Z,7.72
2022-12-17T17:16:24.781Z,7.85
2022-12-17T17:18:54.039Z,7.53
2022-12-17T17:21:34.857Z,9.50
2022-12-17T17:24:07.289Z,6.50
2022-12-17T17:26:37.760Z,10.07
2022-12-17T17:29:06.431Z,9.82
2022-12-17T17:32:08.490Z,7.97
2022-12-17T17:34:22.402Z,5.88
2022-12-17T17:36:49.903Z,6.05
2022-12-17T17:39:17.469Z,5.85
2022-12-17T17:41:44.979Z,6.82
2022-12-17T17:44:13.972Z,6.93
2022-12-17T17:46:41.617Z,5.05
2022-12-17T17:49:10.003Z,4.72
2022-12-17T17:54:29.567Z,4.88
2022-12-17T17:56:57.093Z,4.40
2022-12-17T17:59:32.586Z,4.50
2022-12-17T18:02:01.259Z,4.47
2022-12-17T18:04:29.285Z,4.25
2022-12-17T18:09:44.395Z,5.03
2022-12-17T18:12:30.392Z,4.43
2022-12-17T18:15:13.721Z,4.38
2022-12-17T18:20:10.501Z,12.65
2022-12-17T18:22:38.243Z,5.13
2022-12-17T18:25:06.338Z,4.13
2022-12-17T18:27:34.573Z,4.72
2022-12-17T18:30:02.133Z,4.85
2022-12-17T18:32:30.056Z,4.25
2022-12-17T18:34:57.732Z,4.10
2022-12-17T18:37:25.429Z,4.28
2022-12-17T18:39:53.137Z,4.07
2022-12-17T18:42:39.514Z,4.25
2022-12-17T18:45:07.820Z,3.75
2022-12-17T18:47:37.210Z,4.32
2022-12-17T18:50:05.782Z,3.60
2022-12-17T18:52:33.444Z,4.03
2022-12-17T18:55:00.981Z,4.05
2022-12-17T18:57:28.507Z,3.83
2022-12-17T18:59:56.880Z,3.40
2022-12-17T19:02:24.771Z,6.50
2022-12-17T19:04:52.315Z,5.10
2022-12-17T19:07:19.900Z,3.85
2022-12-17T19:09:47.540Z,4.15
2022-12-17T19:12:15.413Z,3.60
2022-12-17T19:14:43.405Z,3.92
2022-12-17T19:17:10.968Z,3.58
2022-12-17T19:19:38.477Z,3.92
2022-12-17T19:22:06.168Z,3.22
2022-12-17T19:24:36.518Z,3.17
2022-12-17T19:27:04.363Z,3.78
2022-12-17T19:29:32.148Z,3.55
2022-12-17T19:32:00.347Z,4.68
2022-12-17T19:34:28.176Z,3.80
2022-12-17T19:36:55.700Z,3.95
2022-12-17T19:39:23.202Z,3.70
2022-12-17T19:41:51.141Z,4.10
2022-12-17T19:44:22.587Z,4.22
2022-12-17T19:46:50.245Z,4.25
2022-12-17T19:49:18.332Z,4.43
2022-12-17T19:51:45.872Z,3.70
2022-12-17T19:54:15.249Z,4.00
2022-12-17T19:56:44.610Z,4.28
2022-12-17T19:59:13.563Z,4.35
2022-12-17T20:01:44.048Z,5.68
2022-12-17T20:04:12.885Z,3.95
2022-12-17T20:06:40.554Z,4.70
2022-12-17T20:09:09.350Z,4.88
2022-12-17T20:11:37.323Z,4.13
2022-12-17T20:14:09.107Z,5.80
2022-12-17T20:16:40.410Z,4.65
2022-12-17T20:19:11.416Z,4.82
2022-12-17T20:21:39.563Z,5.18
2022-12-17T20:24:07.842Z,4.63
2022-12-17T20:26:36.882Z,4.38
2022-12-17T20:29:05.649Z,6.25
2022-12-17T20:31:34.190Z,5.40
2022-12-17T20:34:05.407Z,6.28
2022-12-17T20:39:00.945Z,5.30
2022-12-17T20:41:30.936Z,5.53
2022-12-17T20:44:02.078Z,7.03
2022-12-17T20:46:30.014Z,5.28
2022-12-17T20:49:00.026Z,5.90
2022-12-17T20:51:29.508Z,6.05
2022-12-17T20:53:59.009Z,6.47
2022-12-17T20:56:29.203Z,6.80
2022-12-17T20:59:00.496Z,6.13
2022-12-17T21:03:58.762Z,6.18
2022-12-17T21:06:47.729Z,7.68
2022-12-17T21:09:18.473Z,7.57
2022-12-17T21:11:46.532Z,7.68
2022-12-17T21:14:17.404Z,7.03
2022-12-17T21:16:46.217Z,6.90
2022-12-17T21:19:16.386Z,7.72
2022-12-17T21:21:44.149Z,7.15
2022-12-17T21:24:12.132Z,7.97
2022-12-17T21:26:46.996Z,7.25
2022-12-17T21:29:15.657Z,7.40
2022-12-17T21:31:48.964Z,6.68
2022-12-17T21:34:25.030Z,8.15
2022-12-17T21:36:52.844Z,6.60
2022-12-17T21:39:21.152Z,7.88
2022-12-17T21:42:16.099Z,7.90
2022-12-17T21:44:43.688Z,7.30
2022-12-17T21:47:14.522Z,6.53
2022-12-17T21:49:42.092Z,7.78
2022-12-17T21:52:09.846Z,7.40
2022-12-17T21:54:38.899Z,7.43
2022-12-17T21:57:07.254Z,7.60
2022-12-17T21:59:34.797Z,6.60
2022-12-17T22:02:02.391Z,7.68
2022-12-17T22:04:30.115Z,7.28
2022-12-17T22:07:10.607Z,7.13
2022-12-17T22:10:14.570Z,7.65
2022-12-17T22:12:46.747Z,6.65
2022-12-17T22:15:14.309Z,7.65
2022-12-17T22:17:42.600Z,6.72
2022-12-17T22:20:11.469Z,9.63
2022-12-17T22:22:38.991Z,7.90
2022-12-17T22:25:08.611Z,8.30
2022-12-17T22:27:37.478Z,12.23
2022-12-17T22:30:31.615Z,13.10
2022-12-17T22:32:59.502Z,12.82
2022-12-17T22:37:48.629Z,10.25
2022-12-17T22:42:34.007Z,8.13
2022-12-17T22:44:35.211Z,8.13
2022-12-17T22:44:46.300Z,8.48
2022-12-17T22:47:11.712Z,7.20
2022-12-17T22:49:41.395Z,8.57
2022-12-17T22:52:11.994Z,18.30
2022-12-17T22:54:40.105Z,8.52
2022-12-17T22:57:34.271Z,10.52
2022-12-17T22:59:55.550Z,8.23
2022-12-17T23:02:23.416Z,6.53
2022-12-17T23:04:51.058Z,6.82
2022-12-17T23:07:18.725Z,5.68
2022-12-17T23:09:46.307Z,6.47
2022-12-17T23:12:34.294Z,10.82
2022-12-17T23:15:01.979Z,6.40
2022-12-17T23:17:29.465Z,6.38
2022-12-17T23:19:56.989Z,6.75
2022-12-17T23:22:24.703Z,7.90
2022-12-17T23:24:52.213Z,5.35
2022-12-17T23:27:19.776Z,5.95
2022-12-17T23:29:47.468Z,4.85
2022-12-17T23:32:15.857Z,4.50
2022-12-17T23:34:43.702Z,4.57
2022-12-17T23:37:11.197Z,3.75
2022-12-17T23:39:38.877Z,3.92
2022-12-17T23:42:07.837Z,3.17
2022-12-17T23:44:35.530Z,4.53
2022-12-17T23:47:03.050Z,5.03
2022-12-17T23:49:30.640Z,4.43
2022-12-17T23:51:58.127Z,4.40
2022-12-17T23:54:25.916Z,4.65
2022-12-17T23:56:53.427Z,4.53
2022-12-17T23:59:21.656Z,5.10
